Time;durP1;ratioP1;P1;durP2;ratioP2;P2;SDS_P1;SDS_P2;PMS_P1;PMS_P2;Temp;Humidity;BMP_temperature;BMP_pressure;BME280_temperature;BME280_humidity;BME280_pressure;Samples;Min_cycle;Max_cycle;Signal;HPM_P1;HPM_P2
2023/02/01 00:01:22;;;;;;;13.23;6.82;;;;;;;1.04;63.32;95031.69;5065392;28;20028;-76
2023/02/01 00:03:48;;;;;;;8.20;4.55;;;;;;;1.03;63.47;95029.34;5064542;28;20032;-77
2023/02/01 00:06:13;;;;;;;5.65;4.20;;;;;;;1.08;63.10;95037.13;5065077;28;20040;-76
2023/02/01 00:08:39;;;;;;;6.13;4.78;;;;;;;1.11;62.83;95036.41;5066214;28;20032;-77
2023/02/01 00:11:06;;;;;;;8.95;5.07;;;;;;;1.05;62.71;95037.91;5066062;28;20031;-77
2023/02/01 00:13:34;;;;;;;7.68;4.85;;;;;;;1.01;62.71;95035.13;5065243;28;20035;-78
2023/02/01 00:16:17;;;;;;;5.88;4.50;;;;;;;0.95;62.89;95038.56;5046853;28;20490;-77
2023/02/01 00:18:47;;;;;;;5.32;3.92;;;;;;;1.05;62.53;95048.72;5064965;28;20074;-77
2023/02/01 00:21:14;;;;;;;7.25;4.72;;;;;;;1.13;62.03;95041.44;5065244;28;20059;-78
2023/02/01 00:23:40;;;;;;;7.18;4.70;;;;;;;1.13;61.51;95039.50;5064796;28;20108;-79
2023/02/01 00:26:08;;;;;;;6.40;4.45;;;;;;;1.16;61.38;95038.00;5064791;28;20031;-78
2023/02/01 00:28:33;;;;;;;10.18;5.63;;;;;;;1.16;61.17;95038.00;5065809;28;20467;-76
2023/02/01 00:31:00;;;;;;;13.30;5.80;;;;;;;1.20;60.90;95027.94;5065067;28;20033;-78
2023/02/01 00:33:25;;;;;;;5.90;4.35;;;;;;;1.17;60.81;95037.63;5063621;28;20123;-78
2023/02/01 00:35:51;;;;;;;8.35;5.07;;;;;;;1.11;60.86;95036.41;5065771;28;20033;-77
2023/02/01 00:38:16;;;;;;;6.78;4.28;;;;;;;1.05;60.56;95035.19;5046514;28;20077;-77
2023/02/01 00:40:42;;;;;;;5.35;4.18;;;;;;;1.02;60.54;95028.56;5065508;28;20121;-77
2023/02/01 00:43:07;;;;;;;5.47;4.10;;;;;;;1.03;60.44;95027.44;5064837;28;20024;-76
2023/02/01 00:45:33;;;;;;;7.03;4.60;;;;;;;1.02;60.31;95025.09;5068407;28;20107;-77
2023/02/01 00:47:58;;;;;;;5.80;4.15;;;;;;;1.01;60.08;95020.81;5065882;28;20031;-77
2023/02/01 00:50:23;;;;;;;6.20;4.30;;;;;;;0.98;59.95;95027.78;5063944;28;20028;-77
2023/02/01 00:52:49;;;;;;;6.68;4.53;;;;;;;1.00;60.20;95021.97;5066008;28;20418;-78
2023/02/01 00:55:14;;;;;;;5.20;3.78;;;;;;;1.05;59.46;95022.44;5063932;28;20042;-78
2023/02/01 00:57:40;;;;;;;5.55;3.65;;;;;;;1.01;59.30;95010.78;5065602;28;20032;-78
2023/02/01 01:00:05;;;;;;;4.95;3.88;;;;;;;0.99;58.89;95015.03;5064856;28;20031;-77
2023/02/01 01:02:31;;;;;;;6.43;3.67;;;;;;;0.92;58.77;95013.03;5063874;28;20057;-76
2023/02/01 01:04:56;;;;;;;5.60;3.47;;;;;;;0.91;58.79;95011.44;5047149;28;20024;-77
2023/02/01 01:07:22;;;;;;;6.85;3.92;;;;;;;0.81;58.86;95009.44;5064471;28;20055;-75
2023/02/01 01:09:47;;;;;;;4.30;3.30;;;;;;;0.84;58.85;95014.09;5065028;28;20143;-76
2023/02/01 01:12:12;;;;;;;5.60;3.17;;;;;;;0.85;58.39;95012.94;5063952;28;20032;-76
2023/02/01 01:14:38;;;;;;;3.80;3.25;;;;;;;0.84;58.24;95007.91;5065309;28;20021;-78
2023/02/01 01:17:03;;;;;;;5.00;3.53;;;;;;;0.78;58.54;95012.88;5064178;28;20139;-77
2023/02/01 01:19:29;;;;;;;4.28;3.42;;;;;;;0.77;57.99;95006.69;5065855;28;20045;-76
2023/02/01 01:21:54;;;;;;;7.85;4.20;;;;;;;0.72;57.74;94993.50;5064562;28;20487;-78
2023/02/01 01:24:19;;;;;;;5.43;3.05;;;;;;;0.77;57.12;95009.41;5063135;28;20357;-76
2023/02/01 01:26:45;;;;;;;6.45;2.65;;;;;;;0.76;56.99;95002.44;5063870;28;20025;-78
2023/02/01 01:29:11;;;;;;;5.20;3.33;;;;;;;0.75;57.03;95010.94;5063644;28;20032;-78
2023/02/01 01:31:36;;;;;;;5.93;3.53;;;;;;;0.74;56.88;95006.66;5064956;28;20154;-79
2023/02/01 01:34:02;;;;;;;4.85;3.22;;;;;;;0.73;56.63;95008.56;5062013;28;20024;-76
2023/02/01 01:36:28;;;;;;;6.03;3.58;;;;;;;0.70;56.35;95020.16;5063570;28;20029;-77
2023/02/01 01:38:53;;;;;;;7.18;3.35;;;;;;;0.71;56.54;95027.13;5062681;28;20420;-78
2023/02/01 01:41:21;;;;;;;3.50;2.63;;;;;;;0.71;56.35;95023.63;5070027;28;20140;-76
2023/02/01 01:43:54;;;;;;;4.03;2.90;;;;;;;0.65;56.29;95022.41;5064279;28;20028;-77
2023/02/01 01:46:22;;;;;;;4.10;2.80;;;;;;;0.70;56.20;95009.34;5064709;28;20036;-76
2023/02/01 01:48:51;;;;;;;4.75;2.78;;;;;;;0.64;56.15;95016.22;5063792;28;20037;-77
2023/02/01 01:51:20;;;;;;;7.65;2.58;;;;;;;0.60;56.26;95020.03;5062868;28;20021;-78
2023/02/01 01:53:50;;;;;;;5.18;3.28;;;;;;;0.60;56.10;95018.13;5046996;28;20020;-76
2023/02/01 01:56:15;;;;;;;3.75;2.83;;;;;;;0.59;56.46;95023.91;5049911;28;20058;-78
2023/02/01 01:58:41;;;;;;;3.47;2.45;;;;;;;0.60;56.36;95028.94;5067559;28;20028;-77
2023/02/01 02:01:07;;;;;;;4.47;3.00;;;;;;;0.63;56.25;95022.81;5067071;28;20506;-78
2023/02/01 02:20:55;;;;;;;3.63;2.22;;;;;;;0.37;56.26;95012.84;5047537;28;20593;-77
2023/02/01 02:23:39;;;;;;;4.45;2.97;;;;;;;0.29;56.47;95013.91;5068623;28;21008;-77
2023/02/01 02:26:19;;;;;;;5.20;2.72;;;;;;;0.31;56.64;95018.94;5067067;28;20043;-77
2023/02/01 02:28:48;;;;;;;2.97;2.38;;;;;;;0.26;57.34;95022.75;5068302;28;20410;-76
2023/02/01 02:31:16;;;;;;;4.65;2.78;;;;;;;0.24;57.77;95020.44;5067885;28;20033;-78
2023/02/01 02:33:50;;;;;;;3.95;2.88;;;;;;;0.24;57.97;95019.66;5067522;28;20131;-76
2023/02/01 02:36:52;;;;;;;3.95;2.50;;;;;;;0.30;57.76;95014.69;5068218;28;20052;-77
2023/02/01 02:39:29;;;;;;;3.95;2.80;;;;;;;0.33;57.78;95017.41;5046607;28;20093;-76
2023/02/01 02:48:27;;;;;;;4.35;3.33;;;;;;;0.16;58.57;95007.94;5044803;28;20391;-78
2023/02/01 03:05:01;;;;;;;4.20;2.55;;;;;;;0.22;57.67;95013.81;5030218;28;20040;-78
2023/02/01 03:08:05;;;;;;;3.20;2.22;;;;;;;0.29;57.09;95015.81;5043958;28;20036;-76
2023/02/01 03:11:07;;;;;;;4.25;2.85;;;;;;;0.28;56.92;95030.50;5032332;28;20120;-76
2023/02/01 03:13:45;;;;;;;4.28;2.53;;;;;;;0.26;57.21;95025.47;5027042;28;20233;-78
2023/02/01 03:16:31;;;;;;;4.30;2.30;;;;;;;0.28;57.16;95030.50;5067111;28;20116;-77
2023/02/01 03:19:06;;;;;;;4.25;2.55;;;;;;;0.27;57.31;95024.31;5066178;28;20108;-78
2023/02/01 03:21:37;;;;;;;4.45;2.33;;;;;;;0.24;57.34;95033.94;5066283;28;20127;-76
2023/02/01 03:24:09;;;;;;;4.32;2.38;;;;;;;0.25;57.07;95037.44;5065903;28;20028;-77
2023/02/01 03:26:38;;;;;;;5.15;2.60;;;;;;;0.28;57.27;95025.84;5065079;28;20029;-78
2023/02/01 03:40:04;;;;;;;4.32;2.47;;;;;;;0.43;56.58;95038.41;5066558;28;20044;-77
2023/02/01 03:42:43;;;;;;;4.97;3.05;;;;;;;0.45;56.73;95048.84;5066804;28;20545;-76
2023/02/01 03:45:21;;;;;;;4.97;2.90;;;;;;;0.46;56.53;95032.28;5065787;28;20032;-77
2023/02/01 03:47:49;;;;;;;3.88;2.53;;;;;;;0.47;56.33;95036.53;5065812;28;20117;-79
2023/02/01 03:50:20;;;;;;;5.82;3.63;;;;;;;0.54;56.15;95043.94;5065125;28;20036;-77
2023/02/01 03:53:04;;;;;;;5.10;2.60;;;;;;;0.61;55.77;95037.84;5064655;28;20478;-77
2023/02/01 03:55:30;;;;;;;3.63;2.33;;;;;;;0.64;55.88;95039.81;5065933;28;20510;-78
2023/02/01 03:58:03;;;;;;;4.80;2.63;;;;;;;0.62;55.71;95037.44;5065247;28;20077;-78
2023/02/01 04:00:28;;;;;;;7.67;2.93;;;;;;;0.68;55.81;95035.19;5064192;28;20051;-76
2023/02/01 04:02:54;;;;;;;3.40;2.50;;;;;;;0.66;55.33;95038.28;5065379;28;20514;-77
2023/02/01 04:05:20;;;;;;;3.17;2.55;;;;;;;0.62;55.73;95039.38;5063921;28;20079;-76
2023/02/01 04:07:45;;;;;;;4.28;2.45;;;;;;;0.66;55.52;95040.22;5048643;28;20063;-76
2023/02/01 04:10:12;;;;;;;4.78;2.47;;;;;;;0.64;55.84;95037.88;5063989;28;20024;-77
2023/02/01 04:12:37;;;;;;;4.40;2.58;;;;;;;0.59;55.83;95042.84;5064493;28;20024;-78
2023/02/01 04:15:03;;;;;;;3.08;2.17;;;;;;;0.66;56.06;95040.97;5066209;28;20400;-77
2023/02/01 04:17:29;;;;;;;3.53;2.85;;;;;;;0.67;55.94;95042.53;5065014;28;20066;-78
2023/02/01 04:19:54;;;;;;;4.47;2.97;;;;;;;0.70;55.92;95043.75;5064901;28;20411;-78
2023/02/01 04:22:20;;;;;;;4.32;2.83;;;;;;;0.74;56.05;95049.94;5064649;28;20422;-80
2023/02/01 04:24:45;;;;;;;5.03;2.72;;;;;;;0.78;55.91;95051.53;5064621;28;20028;-77
2023/02/01 04:27:10;;;;;;;6.22;2.97;;;;;;;0.76;56.10;95051.16;5064672;28;20043;-77
2023/02/01 04:29:36;;;;;;;3.67;2.55;;;;;;;0.84;55.97;95048.50;5069480;28;20358;-77
2023/02/01 04:32:01;;;;;;;6.50;2.88;;;;;;;0.89;56.00;95054.38;5066991;28;20029;-77
2023/02/01 04:34:27;;;;;;;5.70;2.70;;;;;;;0.91;55.91;95045.88;5065435;28;20047;-76
2023/02/01 04:36:52;;;;;;;6.38;3.03;;;;;;;0.94;55.96;95050.53;5064814;28;20089;-78
2023/02/01 04:39:18;;;;;;;4.55;3.05;;;;;;;1.00;55.79;95041.72;5064723;28;20409;-77
2023/02/01 04:41:43;;;;;;;4.25;3.33;;;;;;;1.08;55.82;95047.19;5047592;28;20024;-77
2023/02/01 04:44:15;;;;;;;3.58;2.60;;;;;;;1.11;55.88;95058.06;5062632;28;20384;-79
2023/02/01 04:46:41;;;;;;;6.60;3.78;;;;;;;1.11;55.89;95054.56;5064251;28;20035;-76
2023/02/01 04:49:08;;;;;;;3.58;2.75;;;;;;;1.13;56.19;95061.16;5063366;28;20039;-76
2023/02/01 04:51:34;;;;;;;5.57;2.92;;;;;;;1.12;56.13;95067.72;5063688;28;20037;-76
2023/02/01 04:53:59;;;;;;;4.20;3.10;;;;;;;1.20;56.36;95063.94;5065529;28;20032;-76
2023/02/01 04:56:24;;;;;;;7.22;3.47;;;;;;;1.19;56.50;95067.03;5046243;28;20122;-77
2023/02/01 04:58:50;;;;;;;7.03;3.20;;;;;;;1.21;56.70;95072.84;5064136;28;20512;-77
2023/02/01 05:01:16;;;;;;;5.68;3.55;;;;;;;1.23;56.72;95070.53;5063950;28;20056;-78
2023/02/01 05:03:43;;;;;;;5.50;3.60;;;;;;;1.28;56.72;95067.50;5064023;28;20113;-76
2023/02/01 05:06:09;;;;;;;7.57;4.15;;;;;;;1.32;56.76;95074.50;5063442;28;20032;-75
2023/02/01 05:08:35;;;;;;;6.80;3.97;;;;;;;1.39;56.62;95089.25;5047184;28;20510;-76
2023/02/01 05:11:02;;;;;;;6.30;4.15;;;;;;;1.38;56.57;95079.56;5047141;28;20069;-76
2023/02/01 05:16:12;;;;;;;5.75;3.80;;;;;;;1.40;56.59;95090.81;5064427;28;20519;-77
2023/02/01 05:18:37;;;;;;;7.13;3.83;;;;;;;1.45;56.31;95088.53;5062698;28;20024;-75
2023/02/01 05:21:03;;;;;;;4.95;3.30;;;;;;;1.47;56.00;95077.31;5065091;28;20048;-75
2023/02/01 05:23:28;;;;;;;5.68;3.38;;;;;;;1.47;55.80;95072.69;5062927;28;20515;-76
2023/02/01 05:26:01;;;;;;;4.78;3.50;;;;;;;1.52;55.67;95077.75;5068781;28;20031;-76
2023/02/01 05:28:27;;;;;;;5.05;3.30;;;;;;;1.51;55.63;95091.69;5064539;28;20119;-76
2023/02/01 05:30:53;;;;;;;4.13;3.22;;;;;;;1.55;55.56;95089.78;5045985;28;20059;-77
2023/02/01 05:33:19;;;;;;;5.72;3.80;;;;;;;1.64;55.67;95087.53;5063784;28;20017;-75
2023/02/01 05:35:44;;;;;;;5.40;3.88;;;;;;;1.69;55.15;95084.47;5062797;28;20037;-76
2023/02/01 05:38:11;;;;;;;5.32;3.25;;;;;;;1.72;55.35;95085.63;5065092;28;20181;-77
2023/02/01 05:40:36;;;;;;;6.22;3.15;;;;;;;1.66;55.27;95077.06;5064568;28;20028;-77
2023/02/01 05:43:01;;;;;;;4.25;2.95;;;;;;;1.63;55.48;95085.97;5063620;28;20091;-75
2023/02/01 05:45:27;;;;;;;7.60;3.38;;;;;;;1.66;55.68;95079.78;5065205;28;20047;-75
2023/02/01 05:47:52;;;;;;;5.60;3.58;;;;;;;1.65;55.44;95083.66;5063132;28;20409;-75
2023/02/01 05:50:18;;;;;;;5.43;3.38;;;;;;;1.67;55.63;95083.31;5046911;28;20041;-76
2023/02/01 05:52:43;;;;;;;6.00;4.00;;;;;;;1.73;55.47;95084.50;5064149;28;20040;-76
2023/02/01 05:55:09;;;;;;;4.97;3.92;;;;;;;1.72;55.49;95083.72;5063648;28;20035;-77
2023/02/01 05:57:34;;;;;;;7.85;3.28;;;;;;;1.71;55.37;95087.56;5062354;28;20037;-75
2023/02/01 06:00:00;;;;;;;5.30;3.45;;;;;;;1.70;55.40;95093.38;5065185;28;20029;-77
2023/02/01 06:02:25;;;;;;;4.82;3.70;;;;;;;1.71;55.36;95093.00;5063033;28;20028;-76
2023/02/01 06:04:51;;;;;;;4.72;3.75;;;;;;;1.70;55.40;95079.81;5064448;28;20556;-76
2023/02/01 06:07:17;;;;;;;6.22;3.15;;;;;;;1.66;55.16;95087.13;5063705;28;20028;-75
2023/02/01 06:09:42;;;;;;;3.22;2.92;;;;;;;1.67;55.09;95083.31;5064095;28;20059;-77
2023/02/01 06:12:08;;;;;;;9.13;3.40;;;;;;;1.73;55.03;95084.50;5064145;28;20522;-75
2023/02/01 06:14:33;;;;;;;6.82;3.83;;;;;;;1.70;55.26;95091.44;5063746;28;20411;-78
2023/02/01 06:16:59;;;;;;;5.32;3.40;;;;;;;1.71;55.16;95089.50;5063554;28;20040;-76
2023/02/01 06:19:24;;;;;;;5.80;2.88;;;;;;;1.77;55.14;95093.41;5062274;28;20410;-78
2023/02/01 06:21:50;;;;;;;6.00;3.42;;;;;;;1.78;55.22;95093.06;5049734;28;20111;-77
2023/02/01 06:24:15;;;;;;;4.60;2.85;;;;;;;1.81;55.06;95099.66;5064900;28;20039;-77
2023/02/01 06:26:41;;;;;;;6.97;2.80;;;;;;;1.85;54.90;95103.97;5064891;28;20078;-76
2023/02/01 06:29:09;;;;;;;5.45;3.30;;;;;;;1.88;55.09;95096.22;5064934;28;20115;-76
2023/02/01 06:31:34;;;;;;;5.47;3.00;;;;;;;1.90;55.01;95093.91;5062383;28;20028;-76
2023/02/01 06:34:00;;;;;;;5.72;3.40;;;;;;;1.91;54.67;95095.47;5065036;28;20024;-76
2023/02/01 06:36:25;;;;;;;5.32;3.38;;;;;;;1.95;54.78;95088.94;5062399;28;20039;-78
2023/02/01 06:38:51;;;;;;;7.32;3.30;;;;;;;2.02;54.37;95102.53;5064707;28;20040;-77
2023/02/01 06:41:16;;;;;;;3.60;2.83;;;;;;;2.06;54.16;95100.59;5065997;28;20040;-78
2023/02/01 06:43:42;;;;;;;4.75;3.08;;;;;;;2.07;54.06;95098.69;5066827;28;20032;-78
2023/02/01 06:46:09;;;;;;;6.50;3.33;;;;;;;2.08;54.23;95101.00;5068876;28;20107;-78
2023/02/01 06:48:35;;;;;;;7.40;3.03;;;;;;;2.11;54.20;95110.31;5065536;28;20036;-76
2023/02/01 06:51:00;;;;;;;4.95;2.67;;;;;;;2.12;54.10;95115.38;5066749;28;20031;-76
2023/02/01 06:53:26;;;;;;;4.68;2.80;;;;;;;2.12;54.25;95114.56;5065382;28;20056;-77
2023/02/01 06:56:00;;;;;;;7.10;2.63;;;;;;;2.09;54.23;95118.84;5068831;28;20089;-77
2023/02/01 06:58:29;;;;;;;;;;;;;;;2.10;54.23;95125.81;5066143;28;20032;-77
2023/02/01 07:00:54;;;;;;;4.30;2.92;;;;;;;2.02;54.14;95120.72;5065986;28;19923;-76
2023/02/01 07:03:19;;;;;;;5.50;3.13;;;;;;;1.96;54.35;95124.94;5067530;28;20025;-78
2023/02/01 07:05:45;;;;;;;6.05;3.60;;;;;;;2.07;54.13;95137.44;5066793;28;20085;-76
2023/02/01 07:08:10;;;;;;;6.82;3.13;;;;;;;2.10;53.92;95141.31;5067834;28;20024;-77
2023/02/01 07:10:37;;;;;;;6.78;3.60;;;;;;;2.09;53.91;95131.63;5066276;28;20039;-77
2023/02/01 07:13:02;;;;;;;5.85;3.22;;;;;;;2.13;53.80;95137.84;5066379;28;20047;-76
2023/02/01 07:15:27;;;;;;;5.00;3.05;;;;;;;2.20;53.75;95139.84;5065078;28;20029;-76
2023/02/01 07:17:56;;;;;;;5.85;3.00;;;;;;;2.25;53.50;95139.47;5068175;28;20021;-79
2023/02/01 07:20:22;;;;;;;7.32;3.00;;;;;;;2.23;53.42;95147.97;5069892;28;20052;-77
2023/02/01 07:22:48;;;;;;;7.97;3.85;;;;;;;2.25;53.42;95142.97;5065711;28;20060;-76
2023/02/01 07:25:13;;;;;;;6.18;3.92;;;;;;;2.29;53.42;95151.88;5066700;28;20029;-76
2023/02/01 07:27:39;;;;;;;3.90;2.85;;;;;;;2.26;53.11;95149.16;5066252;28;20098;-77
2023/02/01 07:30:05;;;;;;;7.30;2.65;;;;;;;2.32;53.12;95147.66;5067656;28;20475;-76
2023/02/01 07:32:31;;;;;;;4.82;2.90;;;;;;;2.37;53.11;95150.78;5065158;28;20039;-76
2023/02/01 07:34:57;;;;;;;4.50;2.40;;;;;;;2.32;52.75;95153.09;5066394;28;20028;-77
2023/02/01 07:37:23;;;;;;;4.63;2.63;;;;;;;2.33;53.06;95158.13;5065308;28;20104;-76
2023/02/01 07:39:52;;;;;;;8.05;3.05;;;;;;;2.44;52.80;95160.91;5065491;28;20510;-75
2023/02/01 07:42:17;;;;;;;4.05;2.42;;;;;;;2.51;52.62;95160.16;5066918;28;20555;-77
2023/02/01 07:44:43;;;;;;;3.88;2.47;;;;;;;2.47;52.29;95162.88;5048049;28;20128;-77
2023/02/01 07:47:08;;;;;;;4.53;2.65;;;;;;;2.48;52.33;95156.28;5066025;28;20410;-76
2023/02/01 07:49:34;;;;;;;3.83;2.22;;;;;;;2.48;52.24;95167.13;5065871;28;20054;-76
2023/02/01 07:51:59;;;;;;;5.68;2.83;;;;;;;2.51;52.34;95165.59;5065394;28;20077;-77
2023/02/01 07:54:25;;;;;;;6.53;2.95;;;;;;;2.62;52.14;95169.91;5066055;28;20058;-77
2023/02/01 07:56:50;;;;;;;7.68;3.10;;;;;;;2.72;51.94;95164.94;5066387;28;20423;-76
2023/02/01 07:59:15;;;;;;;7.07;3.08;;;;;;;2.74;51.45;95165.31;5065919;28;20444;-76
2023/02/01 08:01:41;;;;;;;5.15;2.63;;;;;;;2.79;51.75;95173.88;5066057;28;20484;-77
2023/02/01 08:04:09;;;;;;;3.92;3.08;;;;;;;2.79;51.40;95175.81;5065533;28;20039;-76
2023/02/01 08:06:35;;;;;;;7.38;2.85;;;;;;;2.83;51.01;95177.41;5064662;28;20059;-78
2023/02/01 08:09:00;;;;;;;3.22;2.30;;;;;;;2.96;51.08;95175.13;5065812;28;20479;-75
2023/02/01 08:11:26;;;;;;;5.45;3.47;;;;;;;3.05;50.79;95180.22;5063847;28;20101;-77
2023/02/01 08:13:52;;;;;;;5.10;2.75;;;;;;;3.05;50.51;95175.56;5067113;28;20478;-77
2023/02/01 08:16:19;;;;;;;5.00;2.47;;;;;;;3.13;50.02;95168.97;5068546;28;20287;-76
2023/02/01 08:18:45;;;;;;;3.83;2.42;;;;;;;3.22;50.03;95170.56;5065272;28;20051;-76
2023/02/01 08:21:13;;;;;;;4.00;2.30;;;;;;;3.34;49.68;95172.94;5066387;28;20082;-76
2023/02/01 08:23:40;;;;;;;4.70;2.67;;;;;;;3.44;49.58;95175.69;5063821;28;20020;-76
2023/02/01 08:26:10;;;;;;;5.80;2.85;;;;;;;3.53;49.65;95175.31;5066620;28;20041;-77
2023/02/01 08:28:37;;;;;;;4.93;2.92;;;;;;;3.59;49.35;95181.91;5063824;28;20028;-76
2023/02/01 08:31:11;;;;;;;3.72;2.28;;;;;;;3.57;49.20;95178.03;5064992;28;20039;-76
2023/02/01 08:33:37;;;;;;;8.05;2.55;;;;;;;3.60;48.98;95183.47;5063826;28;20028;-76
2023/02/01 08:36:07;;;;;;;5.75;2.80;;;;;;;3.66;48.99;95189.31;5065749;28;20028;-77
2023/02/01 08:38:35;;;;;;;4.25;2.50;;;;;;;3.68;48.88;95179.63;5066352;28;20099;-77
2023/02/01 08:41:05;;;;;;;4.30;2.25;;;;;;;3.78;48.43;95185.44;5064806;28;20054;-77
2023/02/01 08:43:30;;;;;;;4.97;2.85;;;;;;;4.01;48.09;95183.13;5047643;28;20089;-77
2023/02/01 08:45:56;;;;;;;7.80;2.55;;;;;;;4.18;47.54;95182.34;5064797;28;20028;-77
2023/02/01 08:48:21;;;;;;;6.53;2.30;;;;;;;4.40;46.95;95180.38;5065681;28;20035;-77
2023/02/01 08:50:46;;;;;;;5.57;2.58;;;;;;;4.64;46.19;95172.56;5065141;28;20063;-77
2023/02/01 08:53:13;;;;;;;5.32;2.50;;;;;;;5.44;44.66;95175.38;5065331;28;20110;-77
2023/02/01 08:55:39;;;;;;;4.28;2.08;;;;;;;6.86;41.69;95178.97;5065580;28;20464;-76
2023/02/01 08:58:04;;;;;;;3.75;2.20;;;;;;;8.78;38.42;95180.97;5063566;28;20074;-76
2023/02/01 09:00:30;;;;;;;3.67;1.92;;;;;;;10.97;34.60;95187.94;5066196;28;20032;-75
2023/02/01 09:02:55;;;;;;;4.32;1.88;;;;;;;13.11;30.60;95179.47;5062920;28;20036;-77
2023/02/01 09:05:22;;;;;;;4.13;2.03;;;;;;;14.92;27.09;95184.13;5063251;28;20025;-76
2023/02/01 09:07:47;;;;;;;6.15;1.67;;;;;;;16.10;25.34;95194.34;5065036;28;20048;-77
2023/02/01 09:10:13;;;;;;;3.90;2.03;;;;;;;14.45;26.94;95196.25;5064356;28;20179;-78
2023/02/01 09:12:38;;;;;;;3.72;2.15;;;;;;;13.60;27.60;95186.47;5069444;28;20024;-76
2023/02/01 09:15:06;;;;;;;6.05;2.75;;;;;;;16.17;25.48;95198.81;5064484;28;20021;-77
2023/02/01 09:17:32;;;;;;;3.75;2.47;;;;;;;17.97;22.47;95186.72;5064731;28;20032;-77
2023/02/01 09:19:57;;;;;;;5.55;2.65;;;;;;;19.99;20.33;95209.78;5063373;28;20036;-78
2023/02/01 09:22:24;;;;;;;4.22;1.90;;;;;;;21.66;18.85;95209.41;5065777;28;20041;-77
2023/02/01 09:24:49;;;;;;;4.55;2.28;;;;;;;19.71;20.22;95209.47;5062924;28;20025;-77
2023/02/01 09:27:15;;;;;;;3.83;2.03;;;;;;;18.69;21.08;95201.03;5064533;28;20035;-77
2023/02/01 09:29:41;;;;;;;3.55;2.03;;;;;;;20.78;18.92;95205.66;5063252;28;20032;-79
2023/02/01 09:32:06;;;;;;;6.00;2.42;;;;;;;20.84;18.82;95203.66;5065768;28;20043;-76
2023/02/01 09:34:33;;;;;;;4.03;2.35;;;;;;;21.93;17.55;95191.19;5063519;28;20429;-78
2023/02/01 09:36:58;;;;;;;4.03;2.15;;;;;;;23.07;16.28;95193.50;5064789;28;20094;-77
2023/02/01 09:39:24;;;;;;;3.75;2.08;;;;;;;22.87;16.08;95180.53;5065620;28;20131;-78
2023/02/01 09:41:55;;;;;;;5.28;2.38;;;;;;;23.80;15.57;95180.00;5045574;28;20111;-78
2023/02/01 09:44:47;;;;;;;6.65;2.97;;;;;;;24.12;15.31;95179.53;5065588;28;20028;-78
2023/02/01 09:47:18;;;;;;;8.90;4.28;;;;;;;24.60;14.90;95173.34;5064979;28;20541;-79
2023/02/01 09:50:09;;;;;;;8.52;3.97;;;;;;;25.71;14.06;95172.69;5063094;28;20035;-78
2023/02/01 09:52:38;;;;;;;6.07;2.65;;;;;;;24.07;15.06;95157.88;5047241;28;20127;-78
2023/02/01 09:55:11;;;;;;;7.63;2.45;;;;;;;23.21;16.10;95153.19;5062364;28;20024;-77
2023/02/01 09:57:53;;;;;;;8.50;3.17;;;;;;;25.13;14.42;95148.56;5063526;28;20055;-78
2023/02/01 10:00:23;;;;;;;6.05;2.35;;;;;;;25.40;14.19;95145.94;5063674;28;20028;-78
2023/02/01 10:02:49;;;;;;;5.13;2.33;;;;;;;25.40;14.10;95148.75;5063359;28;20021;-77
2023/02/01 10:05:18;;;;;;;4.20;1.90;;;;;;;26.14;13.96;95152.13;5065796;28;20025;-78
2023/02/01 10:07:54;;;;;;;4.15;2.40;;;;;;;25.51;13.83;95145.03;5066166;28;20025;-77
2023/02/01 10:10:30;;;;;;;5.25;2.20;;;;;;;22.78;15.98;95142.31;5064938;28;20028;-78
2023/02/01 10:13:14;;;;;;;3.90;2.40;;;;;;;25.13;14.25;95142.16;5063425;28;20141;-78
2023/02/01 10:15:44;;;;;;;6.18;2.10;;;;;;;25.67;13.71;95133.56;5065505;28;20120;-77
2023/02/01 10:18:28;;;;;;;4.32;2.30;;;;;;;27.02;12.76;95137.09;5069462;28;20173;-79
2023/02/01 10:21:17;;;;;;;4.57;2.42;;;;;;;27.97;11.88;95140.06;5068296;28;20526;-78
2023/02/01 10:24:09;;;;;;;6.47;3.10;;;;;;;29.06;11.48;95127.13;5068839;28;20105;-78
2023/02/01 10:26:42;;;;;;;5.75;2.80;;;;;;;29.71;10.47;95124.34;5068881;28;20028;-78
2023/02/01 10:29:16;;;;;;;6.40;3.70;;;;;;;29.45;10.98;95122.47;5066953;28;20052;-76
2023/02/01 10:31:41;;;;;;;5.53;3.08;;;;;;;30.12;10.79;95121.28;5068431;28;20032;-77
2023/02/01 10:34:22;;;;;;;4.50;3.00;;;;;;;29.93;10.64;95117.22;5069072;28;20094;-77
2023/02/01 10:36:54;;;;;;;4.93;3.03;;;;;;;29.82;10.61;95119.09;5050892;28;20052;-77
2023/02/01 10:39:20;;;;;;;4.63;2.15;;;;;;;27.98;11.35;95116.91;5067151;28;20021;-78
2023/02/01 10:41:46;;;;;;;6.05;2.38;;;;;;;25.25;13.25;95115.44;5066314;28;20029;-77
2023/02/01 10:44:15;;;;;;;5.65;2.90;;;;;;;22.57;15.75;95109.50;5067445;28;20036;-79
2023/02/01 10:46:41;;;;;;;4.72;2.83;;;;;;;21.85;16.44;95114.59;5065396;28;20559;-78
2023/02/01 10:49:13;;;;;;;5.10;3.00;;;;;;;21.43;16.84;95107.88;5068655;28;20036;-77
2023/02/01 10:51:44;;;;;;;8.15;3.00;;;;;;;19.86;18.19;95103.41;5066069;28;20020;-77
2023/02/01 10:54:37;;;;;;;4.75;2.72;;;;;;;20.09;18.01;95109.94;5067788;28;20056;-78
2023/02/01 10:57:07;;;;;;;4.87;2.67;;;;;;;19.01;19.10;95101.72;5068058;28;20025;-77
2023/02/01 10:59:36;;;;;;;23.55;8.52;;;;;;;19.67;18.73;95099.41;5049814;28;20033;-86
2023/02/01 11:02:13;;;;;;;6.95;2.60;;;;;;;20.60;17.43;95108.28;5074827;28;20017;-86
2023/02/01 11:04:38;;;;;;;7.88;2.78;;;;;;;18.37;19.41;95096.28;5065521;28;20469;-83
2023/02/01 11:07:17;;;;;;;4.97;2.92;;;;;;;17.25;20.74;95097.94;5073789;28;20021;-80
2023/02/01 11:09:49;;;;;;;6.55;2.90;;;;;;;17.36;20.86;95089.81;5048992;28;20573;-79
2023/02/01 11:12:40;;;;;;;5.45;2.75;;;;;;;19.87;18.29;95086.16;5065734;28;20017;-79
2023/02/01 11:15:15;;;;;;;8.15;2.70;;;;;;;21.05;17.06;95072.19;5050043;28;20040;-78
2023/02/01 11:17:46;;;;;;;7.10;2.10;;;;;;;22.75;15.83;95086.53;5067514;28;20028;-79
2023/02/01 11:20:44;;;;;;;9.95;5.75;;;;;;;23.42;14.58;95060.28;5067307;28;20020;-78
2023/02/01 11:23:18;;;;;;;5.28;2.90;;;;;;;24.42;14.27;95086.88;5068600;28;20052;-85
2023/02/01 11:25:58;;;;;;;3.72;2.17;;;;;;;24.21;14.24;95064.09;5065925;28;20043;-82
2023/02/01 11:28:30;;;;;;;5.30;3.05;;;;;;;24.42;14.25;95064.41;5049211;28;20031;-82
2023/02/01 11:30:59;;;;;;;5.25;3.00;;;;;;;25.04;13.83;95075.75;5066624;28;20100;-81
2023/02/01 11:33:30;;;;;;;4.95;1.90;;;;;;;25.32;13.71;95060.63;5066132;28;20032;-83
2023/02/01 11:35:59;;;;;;;4.70;2.22;;;;;;;25.69;13.29;95063.41;5069255;28;20576;-82
2023/02/01 11:38:30;;;;;;;5.90;1.92;;;;;;;26.57;12.64;95070.25;5066902;28;20060;-81
2023/02/01 11:40:56;;;;;;;3.95;2.10;;;;;;;27.41;12.28;95070.66;5070410;28;20039;-81
2023/02/01 11:43:27;;;;;;;3.33;1.98;;;;;;;27.65;11.63;95059.09;5068271;28;20021;-84
2023/02/01 11:45:58;;;;;;;3.88;1.85;;;;;;;27.53;11.94;95049.38;5066788;28;20032;-82
2023/02/01 11:48:27;;;;;;;3.53;1.67;;;;;;;27.08;11.98;95039.03;5067975;28;20029;-84
2023/02/01 11:51:17;;;;;;;3.97;1.35;;;;;;;26.45;12.41;95032.28;5066083;28;20047;-82
2023/02/01 11:54:01;;;;;;;4.80;2.60;;;;;;;25.66;13.04;95041.97;5069477;28;20036;-84
2023/02/01 11:56:33;;;;;;;;;;;;;;;25.87;12.72;95035.81;5069553;28;20300;-83
2023/02/01 11:59:10;;;;;;;2.63;1.33;;;;;;;26.35;12.54;95042.41;5070312;28;19947;-83
2023/02/01 12:01:57;;;;;;;4.47;1.90;;;;;;;25.43;13.43;95032.31;5080238;28;20040;-83
2023/02/01 12:04:54;;;;;;;4.97;1.70;;;;;;;25.05;13.77;95040.75;5065823;28;20043;-84
2023/02/01 12:07:40;;;;;;;3.45;1.60;;;;;;;25.25;13.44;95041.53;5068229;28;20095;-83
2023/02/01 12:10:25;;;;;;;4.20;1.70;;;;;;;25.31;13.36;95031.72;5068942;28;20028;-81
2023/02/01 12:13:08;;;;;;;3.92;1.98;;;;;;;24.01;14.19;95028.75;5072045;28;20032;-83
2023/02/01 12:15:55;;;;;;;4.28;1.85;;;;;;;22.83;15.39;95022.34;5050167;28;20456;-82
2023/02/01 12:18:27;;;;;;;3.10;2.13;;;;;;;21.05;16.99;95013.50;5067036;28;20384;-81
2023/02/01 12:21:34;;;;;;;2.80;1.60;;;;;;;19.36;18.67;95014.44;5065976;28;20044;-78
2023/02/01 12:24:21;;;;;;;6.72;1.90;;;;;;;17.25;20.85;95017.38;5065923;28;20112;-77
2023/02/01 12:27:27;;;;;;;5.28;1.80;;;;;;;15.44;23.47;95007.78;5065526;28;20040;-79
2023/02/01 12:29:59;;;;;;;4.18;1.88;;;;;;;13.73;25.94;95007.59;5063693;28;20035;-78
2023/02/01 12:32:33;;;;;;;3.67;2.08;;;;;;;12.70;27.48;95009.47;5066946;28;20043;-79
2023/02/01 12:35:24;;;;;;;4.25;1.70;;;;;;;12.12;27.99;95018.94;5063728;28;20029;-78
2023/02/01 12:38:13;;;;;;;4.47;2.17;;;;;;;10.98;29.71;95007.94;5065704;28;20491;-77
2023/02/01 12:41:02;;;;;;;2.90;1.50;;;;;;;10.78;30.01;95008.13;5065674;28;20036;-77
2023/02/01 12:43:36;;;;;;;2.95;1.80;;;;;;;10.52;30.69;95018.28;5064836;28;20087;-79